Time,TemperatureF,DewpointF,PressureIn,WindDirection,WindDirectionDegrees,WindSpeedMPH,WindSpeedGustMPH,Humidity,HourlyPrecipIn,Conditions,Clouds,dailyrainin,SoftwareType,DateUTC
2013-01-19 00:02:00,40.0,38.0,30.24,SSE,150,3.0,7.0,91,0.00,,,0.00,,2013-01-19 08:02:00,
2013-01-19 00:11:00,40.0,38.0,30.24,SSE,150,3.0,7.0,91,0.00,,,0.00,,2013-01-19 08:11:00,
2013-01-19 00:22:00,40.0,38.0,30.24,ESE,123,4.0,10.0,91,0.00,,,0.00,,2013-01-19 08:22:00,
2013-01-19 00:32:00,41.0,38.0,30.24,ESE,123,4.0,9.0,90,0.00,,,0.00,,2013-01-19 08:32:00,
2013-01-19 00:42:00,41.0,38.0,30.24,ESE,123,4.0,9.0,90,0.00,,,0.00,,2013-01-19 08:42:00,
2013-01-19 00:52:00,41.0,38.0,30.25,East,94,3.0,9.0,89,0.00,,,0.00,,2013-01-19 08:52:00,
2013-01-19 01:02:00,41.0,38.0,30.25,East,94,3.0,9.0,89,0.00,,,0.00,,2013-01-19 09:02:00,
2013-01-19 01:12:00,41.0,38.0,30.25,East,94,3.0,9.0,89,0.00,,,0.00,,2013-01-19 09:12:00,
2013-01-19 01:22:00,40.0,37.0,30.24,SE,134,2.0,8.0,88,0.00,,,0.00,,2013-01-19 09:22:00,
2013-01-19 01:32:00,38.0,35.0,30.24,ESE,102,2.0,6.0,89,0.00,,,0.00,,2013-01-19 09:32:00,
2013-01-19 01:42:00,38.0,35.0,30.24,ESE,102,2.0,6.0,89,0.00,,,0.00,,2013-01-19 09:42:00,
2013-01-19 01:52:00,40.0,37.0,30.24,East,99,6.0,11.0,90,0.00,,,0.00,,2013-01-19 09:52:00,
2013-01-19 02:02:00,40.0,37.0,30.24,ESE,110,4.0,11.0,88,0.00,,,0.00,,2013-01-19 10:02:00,
2013-01-19 02:12:00,40.0,37.0,30.24,ESE,110,4.0,11.0,88,0.00,,,0.00,,2013-01-19 10:12:00,
2013-01-19 02:22:00,38.0,35.0,30.24,SE,146,3.0,9.0,88,0.00,,,0.00,,2013-01-19 10:22:00,
2013-01-19 02:32:00,37.0,34.0,30.26,ESE,120,3.0,6.0,90,0.00,,,0.00,,2013-01-19 10:32:00,
2013-01-19 02:42:00,37.0,34.0,30.26,ESE,120,3.0,6.0,90,0.00,,,0.00,,2013-01-19 10:42:00,
2013-01-19 02:52:00,37.0,34.0,30.25,ESE,111,3.0,9.0,90,0.00,,,0.00,,2013-01-19 10:52:00,
2013-01-19 03:02:00,37.0,35.0,30.25,East,94,5.0,11.0,91,0.00,,,0.00,,2013-01-19 11:02:00,
2013-01-19 03:12:00,37.0,35.0,30.25,East,94,5.0,11.0,91,0.00,,,0.00,,2013-01-19 11:12:00,
2013-01-19 04:53:00,43.0,36.0,30.24,NE,44,7.0,16.0,77,0.00,,,0.00,,2013-01-19 12:53:00,
2013-01-19 05:02:00,43.0,36.0,30.24,ESE,105,7.0,14.0,77,0.00,,,0.00,,2013-01-19 13:02:00,
2013-01-19 05:12:00,43.0,36.0,30.24,ESE,105,7.0,14.0,77,0.00,,,0.00,,2013-01-19 13:12:00,
2013-01-19 05:22:00,43.0,36.0,30.25,ENE,76,7.0,14.0,77,0.00,,,0.00,,2013-01-19 13:22:00,
2013-01-19 05:33:00,42.0,36.0,30.25,ESE,108,7.0,15.0,78,0.00,,,0.00,,2013-01-19 13:33:00,
2013-01-19 05:42:00,42.0,36.0,30.25,ESE,108,7.0,15.0,78,0.00,,,0.00,,2013-01-19 13:42:00,
2013-01-19 05:53:00,39.0,33.0,30.25,SE,133,3.0,14.0,80,0.00,,,0.00,,2013-01-19 13:53:00,
2013-01-19 06:02:00,40.0,36.0,30.25,ESE,123,6.0,12.0,84,0.00,,,0.00,,2013-01-19 14:02:00,
2013-01-19 06:12:00,40.0,36.0,30.25,ESE,123,6.0,12.0,84,0.00,,,0.00,,2013-01-19 14:12:00,
2013-01-19 06:22:00,38.0,33.0,30.25,East,90,4.0,11.0,83,0.00,,,0.00,,2013-01-19 14:22:00,
2013-01-19 06:33:00,38.0,34.0,30.25,East,88,6.0,11.0,86,0.00,,,0.00,,2013-01-19 14:33:00,
2013-01-19 06:42:00,38.0,34.0,30.25,East,88,6.0,11.0,86,0.00,,,0.00,,2013-01-19 14:42:00,
2013-01-19 06:53:00,40.0,36.0,30.26,SSE,161,6.0,14.0,84,0.00,,,0.00,,2013-01-19 14:53:00,
2013-01-19 07:02:00,39.0,35.0,30.26,SE,129,5.0,12.0,84,0.00,,,0.00,,2013-01-19 15:02:00,
2013-01-19 07:12:00,39.0,35.0,30.26,SE,129,5.0,12.0,84,0.00,,,0.00,,2013-01-19 15:12:00,
2013-01-19 07:22:00,37.0,33.0,30.27,East,96,4.0,9.0,86,0.00,,,0.00,,2013-01-19 15:22:00,
2013-01-19 07:32:00,36.0,33.0,30.27,SSE,154,2.0,10.0,87,0.00,,,0.00,,2013-01-19 15:32:00,
2013-01-19 07:42:00,36.0,33.0,30.27,SSE,154,2.0,10.0,87,0.00,,,0.00,,2013-01-19 15:42:00,
2013-01-19 07:53:00,36.0,33.0,30.27,SSE,156,2.0,5.0,88,0.00,,,0.00,,2013-01-19 15:53:00,
2013-01-19 08:02:00,37.0,34.0,30.27,ESE,109,5.0,11.0,89,0.00,,,0.00,,2013-01-19 16:02:00,
2013-01-19 08:12:00,37.0,34.0,30.27,ESE,109,5.0,11.0,89,0.00,,,0.00,,2013-01-19 16:12:00,
2013-01-19 08:22:00,36.0,33.0,30.28,East,88,1.0,7.0,88,0.00,,,0.00,,2013-01-19 16:22:00,
2013-01-19 08:32:00,35.0,32.0,30.29,SE,142,1.0,7.0,90,0.00,,,0.00,,2013-01-19 16:32:00,
2013-01-19 08:42:00,35.0,32.0,30.29,SE,142,1.0,7.0,90,0.00,,,0.00,,2013-01-19 16:42:00,
2013-01-19 08:53:00,35.0,32.0,30.29,ESE,119,2.0,6.0,90,0.00,,,0.00,,2013-01-19 16:53:00,
2013-01-19 09:02:00,35.0,33.0,30.30,ESE,107,1.0,5.0,91,0.00,,,0.00,,2013-01-19 17:02:00,
2013-01-19 09:13:00,35.0,33.0,30.30,ESE,107,1.0,5.0,91,0.00,,,0.00,,2013-01-19 17:13:00,
2013-01-19 09:33:00,37.0,34.0,30.30,ESE,121,1.0,3.0,90,0.00,,,0.00,,2013-01-19 17:33:00,
2013-01-19 09:44:00,37.0,34.0,30.30,ESE,121,1.0,3.0,90,0.00,,,0.00,,2013-01-19 17:44:00,
2013-01-19 09:54:00,39.0,36.0,30.31,ESE,103,1.0,3.0,90,0.00,,,0.00,,2013-01-19 17:54:00,
2013-01-19 10:04:00,40.0,37.0,30.32,SE,128,0.0,3.0,89,0.00,,,0.00,,2013-01-19 18:04:00,
2013-01-19 10:12:00,40.0,37.0,30.32,SE,128,0.0,3.0,89,0.00,,,0.00,,2013-01-19 18:12:00,
2013-01-19 10:24:00,41.0,38.0,30.32,ESE,109,0.0,2.0,88,0.00,,,0.00,,2013-01-19 18:24:00,
2013-01-19 10:32:00,42.0,38.0,30.32,SE,128,0.0,2.0,87,0.00,,,0.00,,2013-01-19 18:32:00,
2013-01-19 10:43:00,42.0,38.0,30.32,SE,128,0.0,2.0,87,0.00,,,0.00,,2013-01-19 18:43:00,
2013-01-19 10:58:00,42.0,38.0,30.32,SSE,164,0.0,2.0,87,0.00,,,0.00,,2013-01-19 18:58:00,
2013-01-19 11:04:00,43.0,40.0,30.32,SSW,198,2.0,4.0,88,0.00,,,0.00,,2013-01-19 19:04:00,
2013-01-19 11:14:00,43.0,40.0,30.32,SSW,198,2.0,4.0,88,0.00,,,0.00,,2013-01-19 19:14:00,
2013-01-19 11:25:00,44.0,42.0,30.33,West,277,1.0,3.0,91,0.00,,,0.00,,2013-01-19 19:25:00,
2013-01-19 11:34:00,44.0,42.0,30.32,West,269,2.0,5.0,92,0.00,,,0.00,,2013-01-19 19:34:00,
2013-01-19 11:43:00,44.0,42.0,30.32,West,269,2.0,5.0,92,0.00,,,0.00,,2013-01-19 19:43:00,
2013-01-19 11:55:00,44.0,42.0,30.32,West,267,2.0,4.0,92,0.00,,,0.00,,2013-01-19 19:55:00,
2013-01-19 12:04:00,44.0,42.0,30.31,WNW,287,3.0,5.0,92,0.00,,,0.00,,2013-01-19 20:04:00,
2013-01-19 12:13:00,44.0,42.0,30.31,WNW,287,3.0,5.0,92,0.00,,,0.00,,2013-01-19 20:13:00,
2013-01-19 12:23:00,44.0,42.0,30.31,West,278,2.0,6.0,92,0.00,,,0.00,,2013-01-19 20:23:00,
2013-01-19 12:33:00,44.0,42.0,30.30,SW,223,1.0,3.0,92,0.00,,,0.00,,2013-01-19 20:33:00,
2013-01-19 12:43:00,44.0,42.0,30.30,SW,223,1.0,3.0,92,0.00,,,0.00,,2013-01-19 20:43:00,
2013-01-19 12:55:00,44.0,42.0,30.30,WSW,237,1.0,4.0,93,0.00,,,0.00,,2013-01-19 20:55:00,
2013-01-19 13:03:00,44.0,42.0,30.30,WNW,291,1.0,4.0,93,0.00,,,0.00,,2013-01-19 21:03:00,
2013-01-19 13:23:00,44.0,42.0,30.30,West,271,1.0,3.0,92,0.00,,,0.00,,2013-01-19 21:23:00,
2013-01-19 13:34:00,44.0,42.0,30.29,West,260,1.0,4.0,92,0.00,,,0.00,,2013-01-19 21:34:00,
2013-01-19 13:45:00,44.0,42.0,30.29,West,260,1.0,4.0,92,0.00,,,0.00,,2013-01-19 21:45:00,
2013-01-19 13:58:00,44.0,42.0,30.29,West,260,1.0,4.0,92,0.00,,,0.00,,2013-01-19 21:58:00,
2013-01-19 14:03:00,44.0,42.0,30.29,West,261,0.0,4.0,93,0.00,,,0.00,,2013-01-19 22:03:00,
2013-01-19 14:13:00,44.0,42.0,30.29,West,261,0.0,4.0,93,0.00,,,0.00,,2013-01-19 22:13:00,
2013-01-19 14:24:00,44.0,42.0,30.29,West,267,2.0,4.0,93,0.00,,,0.00,,2013-01-19 22:24:00,
2013-01-19 14:34:00,44.0,42.0,30.29,West,277,2.0,4.0,93,0.00,,,0.00,,2013-01-19 22:34:00,
2013-01-19 14:44:00,44.0,42.0,30.29,West,277,2.0,4.0,93,0.00,,,0.00,,2013-01-19 22:44:00,
2013-01-19 14:55:00,44.0,42.0,30.29,West,278,2.0,4.0,93,0.00,,,0.00,,2013-01-19 22:55:00,
2013-01-19 15:04:00,44.0,42.0,30.29,West,262,1.0,3.0,94,0.00,,,0.00,,2013-01-19 23:04:00,
2013-01-19 15:13:00,44.0,42.0,30.29,West,262,1.0,3.0,94,0.00,,,0.00,,2013-01-19 23:13:00,
2013-01-19 15:24:00,43.0,41.0,30.29,WSW,257,1.0,3.0,94,0.00,,,0.00,,2013-01-19 23:24:00,
2013-01-19 15:33:00,43.0,41.0,30.29,West,266,1.0,3.0,94,0.00,,,0.00,,2013-01-19 23:33:00,
2013-01-19 15:43:00,43.0,41.0,30.29,West,266,1.0,3.0,94,0.00,,,0.00,,2013-01-19 23:43:00,
2013-01-19 16:13:00,43.0,41.0,30.29,West,274,1.0,4.0,94,0.00,,,0.00,,2013-01-20 00:13:00,
2013-01-19 16:23:00,43.0,42.0,30.29,SW,236,0.0,2.0,95,0.00,,,0.00,,2013-01-20 00:23:00,
2013-01-19 16:33:00,43.0,42.0,30.29,West,269,0.0,3.0,95,0.00,,,0.00,,2013-01-20 00:33:00,
2013-01-19 16:44:00,43.0,42.0,30.29,West,269,0.0,3.0,95,0.00,,,0.00,,2013-01-20 00:44:00,
2013-01-19 16:55:00,43.0,42.0,30.30,West,272,3.0,7.0,95,0.00,,,0.00,,2013-01-20 00:55:00,
2013-01-19 17:02:00,43.0,42.0,30.29,SSW,208,0.0,3.0,95,0.00,,,0.00,,2013-01-20 01:02:00,
2013-01-19 17:23:00,43.0,42.0,30.29,SSW,208,0.0,3.0,95,0.00,,,0.00,,2013-01-20 01:23:00,
2013-01-19 17:33:00,42.0,41.0,30.30,SSW,213,0.0,0.0,95,0.00,,,0.00,,2013-01-20 01:33:00,
2013-01-19 17:44:00,42.0,41.0,30.30,SSW,213,0.0,0.0,95,0.00,,,0.00,,2013-01-20 01:44:00,
2013-01-19 18:01:00,42.0,41.0,30.30,SSW,196,0.0,0.0,95,0.00,,,0.00,,2013-01-20 02:01:00,
2013-01-19 18:12:00,42.0,41.0,30.30,SSW,196,0.0,0.0,95,0.00,,,0.00,,2013-01-20 02:12:00,
2013-01-19 18:24:00,42.0,41.0,30.30,West,277,0.0,3.0,95,0.00,,,0.00,,2013-01-20 02:24:00,
2013-01-19 18:33:00,42.0,41.0,30.31,South,182,0.0,0.0,96,0.00,,,0.00,,2013-01-20 02:33:00,
2013-01-19 18:45:00,42.0,41.0,30.31,South,182,0.0,0.0,96,0.00,,,0.00,,2013-01-20 02:45:00,
2013-01-19 18:57:00,42.0,41.0,30.31,SSE,157,0.0,6.0,96,0.00,,,0.00,,2013-01-20 02:57:00,
2013-01-19 19:04:00,42.0,41.0,30.31,SE,136,0.0,0.0,96,0.00,,,0.00,,2013-01-20 03:04:00,
2013-01-19 19:23:00,42.0,41.0,30.31,SE,140,0.0,0.0,96,0.00,,,0.00,,2013-01-20 03:23:00,
2013-01-19 19:33:00,42.0,41.0,30.31,SE,143,0.0,0.0,96,0.00,,,0.00,,2013-01-20 03:33:00,
2013-01-19 19:43:00,42.0,41.0,30.31,SE,143,0.0,0.0,96,0.00,,,0.00,,2013-01-20 03:43:00,
2013-01-19 19:55:00,41.0,40.0,30.31,SE,142,0.0,4.0,96,0.00,,,0.00,,2013-01-20 03:55:00,
2013-01-19 20:03:00,41.0,40.0,30.31,SE,134,0.0,4.0,96,0.00,,,0.00,,2013-01-20 04:03:00,
2013-01-19 20:14:00,41.0,40.0,30.31,SE,134,0.0,4.0,96,0.00,,,0.00,,2013-01-20 04:14:00,
2013-01-19 20:33:00,40.0,39.0,30.32,North,9,0.0,0.0,96,0.00,,,0.00,,2013-01-20 04:33:00,
2013-01-19 20:43:00,40.0,39.0,30.32,North,9,0.0,0.0,96,0.00,,,0.00,,2013-01-20 04:43:00,
2013-01-19 20:55:00,40.0,39.0,30.32,SE,139,0.0,3.0,96,0.00,,,0.00,,2013-01-20 04:55:00,
2013-01-19 21:02:00,40.0,39.0,30.32,East,93,3.0,5.0,96,0.00,,,0.00,,2013-01-20 05:02:00,
2013-01-19 21:12:00,40.0,39.0,30.32,East,93,3.0,5.0,96,0.00,,,0.00,,2013-01-20 05:12:00,
2013-01-19 21:22:00,40.0,39.0,30.32,ENE,62,1.0,7.0,96,0.00,,,0.00,,2013-01-20 05:22:00,
2013-01-19 21:32:00,39.0,38.0,30.32,ENE,63,4.0,9.0,96,0.00,,,0.00,,2013-01-20 05:32:00,
2013-01-19 21:42:00,39.0,38.0,30.32,ENE,63,4.0,9.0,96,0.00,,,0.00,,2013-01-20 05:42:00,
2013-01-19 21:53:00,39.0,38.0,30.32,ESE,111,0.0,6.0,96,0.00,,,0.00,,2013-01-20 05:53:00,
2013-01-19 22:02:00,39.0,38.0,30.32,ESE,115,3.0,10.0,96,0.00,,,0.00,,2013-01-20 06:02:00,
2013-01-19 22:11:00,39.0,38.0,30.32,ESE,115,3.0,10.0,96,0.00,,,0.00,,2013-01-20 06:11:00,
2013-01-19 22:22:00,39.0,38.0,30.32,SE,125,3.0,12.0,96,0.00,,,0.00,,2013-01-20 06:22:00,
2013-01-19 22:32:00,39.0,38.0,30.32,ESE,116,2.0,8.0,96,0.00,,,0.00,,2013-01-20 06:32:00,
2013-01-19 22:42:00,39.0,38.0,30.32,ESE,116,2.0,8.0,96,0.00,,,0.00,,2013-01-20 06:42:00,
2013-01-19 22:53:00,39.0,38.0,30.32,ESE,116,4.0,11.0,96,0.00,,,0.00,,2013-01-20 06:53:00,
2013-01-19 23:02:00,38.0,37.0,30.32,SE,138,3.0,8.0,96,0.00,,,0.00,,2013-01-20 07:02:00,
2013-01-19 23:11:00,38.0,37.0,30.32,SE,138,3.0,8.0,96,0.00,,,0.00,,2013-01-20 07:11:00,
2013-01-19 23:22:00,38.0,37.0,30.32,ESE,115,3.0,9.0,96,0.00,,,0.00,,2013-01-20 07:22:00,
2013-01-19 23:32:00,38.0,37.0,30.32,ENE,59,3.0,10.0,96,0.00,,,0.00,,2013-01-20 07:32:00,
2013-01-19 23:42:00,38.0,37.0,30.32,ENE,59,3.0,10.0,96,0.00,,,0.00,,2013-01-20 07:42:00,
2013-01-19 23:52:00,38.0,37.0,30.32,ENE,72,3.0,9.0,96,0.00,,,0.00,,2013-01-20 07:52:00,